sensor_id;sensor_type;location;lat;lon;timestamp;temperature;humidity
18126;DHT22;53956;52.442;13.284;2023-06-05T00:01:51;20.10;49.90
18126;DHT22;53956;52.442;13.284;2023-06-05T00:04:18;20.10;50.30
18126;DHT22;53956;52.442;13.284;2023-06-05T00:06:47;20.20;50.50
18126;DHT22;53956;52.442;13.284;2023-06-05T00:09:14;20.10;50.20
18126;DHT22;53956;52.442;13.284;2023-06-05T00:11:41;20.00;49.30
18126;DHT22;53956;52.442;13.284;2023-06-05T00:14:08;20.10;49.60
18126;DHT22;53956;52.442;13.284;2023-06-05T00:16:35;20.00;48.80
18126;DHT22;53956;52.442;13.284;2023-06-05T00:19:01;20.10;50.00
18126;DHT22;53956;52.442;13.284;2023-06-05T00:21:28;20.20;50.10
18126;DHT22;53956;52.442;13.284;2023-06-05T00:23:56;20.10;49.90
18126;DHT22;53956;52.442;13.284;2023-06-05T00:26:23;20.10;49.50
18126;DHT22;53956;52.442;13.284;2023-06-05T00:28:50;20.00;49.80
18126;DHT22;53956;52.442;13.284;2023-06-05T00:31:17;20.10;50.20
18126;DHT22;53956;52.442;13.284;2023-06-05T00:33:47;20.00;49.50
18126;DHT22;53956;52.442;13.284;2023-06-05T00:36:13;20.00;49.40
18126;DHT22;53956;52.442;13.284;2023-06-05T00:38:40;20.10;49.90
18126;DHT22;53956;52.442;13.284;2023-06-05T00:41:08;20.00;49.30
18126;DHT22;53956;52.442;13.284;2023-06-05T00:43:34;20.00;49.30
18126;DHT22;53956;52.442;13.284;2023-06-05T00:46:04;19.90;50.00
18126;DHT22;53956;52.442;13.284;2023-06-05T00:48:32;20.00;49.80
18126;DHT22;53956;52.442;13.284;2023-06-05T00:50:59;19.90;50.60
18126;DHT22;53956;52.442;13.284;2023-06-05T00:53:27;20.00;50.70
18126;DHT22;53956;52.442;13.284;2023-06-05T00:55:56;19.90;50.20
18126;DHT22;53956;52.442;13.284;2023-06-05T00:58:25;20.00;50.00
18126;DHT22;53956;52.442;13.284;2023-06-05T01:00:52;19.90;50.20
18126;DHT22;53956;52.442;13.284;2023-06-05T01:03:21;19.80;50.10
18126;DHT22;53956;52.442;13.284;2023-06-05T01:05:50;19.80;50.20
18126;DHT22;53956;52.442;13.284;2023-06-05T01:08:17;19.80;50.10
18126;DHT22;53956;52.442;13.284;2023-06-05T01:10:51;19.70;50.50
18126;DHT22;53956;52.442;13.284;2023-06-05T01:13:23;19.80;50.50
18126;DHT22;53956;52.442;13.284;2023-06-05T01:15:52;19.90;50.90
18126;DHT22;53956;52.442;13.284;2023-06-05T01:18:20;19.70;50.90
18126;DHT22;53956;52.442;13.284;2023-06-05T01:20:48;19.60;50.20
18126;DHT22;53956;52.442;13.284;2023-06-05T01:23:18;19.80;50.00
18126;DHT22;53956;52.442;13.284;2023-06-05T01:25:51;19.60;50.30
18126;DHT22;53956;52.442;13.284;2023-06-05T01:28:23;19.50;50.50
18126;DHT22;53956;52.442;13.284;2023-06-05T01:30:54;19.50;50.60
18126;DHT22;53956;52.442;13.284;2023-06-05T01:33:30;19.50;50.80
18126;DHT22;53956;52.442;13.284;2023-06-05T01:36:00;19.40;51.10
18126;DHT22;53956;52.442;13.284;2023-06-05T01:38:33;19.50;51.60
18126;DHT22;53956;52.442;13.284;2023-06-05T01:41:02;19.40;51.20
18126;DHT22;53956;52.442;13.284;2023-06-05T01:43:30;19.50;50.50
18126;DHT22;53956;52.442;13.284;2023-06-05T01:45:59;19.50;51.10
18126;DHT22;53956;52.442;13.284;2023-06-05T01:48:26;19.50;51.80
18126;DHT22;53956;52.442;13.284;2023-06-05T01:50:55;19.50;51.50
18126;DHT22;53956;52.442;13.284;2023-06-05T01:53:22;19.60;51.40
18126;DHT22;53956;52.442;13.284;2023-06-05T01:55:50;19.60;51.30
18126;DHT22;53956;52.442;13.284;2023-06-05T01:58:20;19.60;51.00
18126;DHT22;53956;52.442;13.284;2023-06-05T02:00:48;19.60;51.30
18126;DHT22;53956;52.442;13.284;2023-06-05T02:03:17;19.60;51.70
18126;DHT22;53956;52.442;13.284;2023-06-05T02:05:44;19.70;52.30
18126;DHT22;53956;52.442;13.284;2023-06-05T02:08:11;19.70;51.70
18126;DHT22;53956;52.442;13.284;2023-06-05T02:10:39;19.60;52.00
18126;DHT22;53956;52.442;13.284;2023-06-05T02:13:11;19.60;51.50
18126;DHT22;53956;52.442;13.284;2023-06-05T02:15:37;19.40;51.70
18126;DHT22;53956;52.442;13.284;2023-06-05T02:18:06;19.50;51.80
18126;DHT22;53956;52.442;13.284;2023-06-05T02:20:34;19.60;52.00
18126;DHT22;53956;52.442;13.284;2023-06-05T02:23:02;19.50;52.10
18126;DHT22;53956;52.442;13.284;2023-06-05T02:25:30;19.50;52.20
18126;DHT22;53956;52.442;13.284;2023-06-05T02:27:57;19.40;51.90
18126;DHT22;53956;52.442;13.284;2023-06-05T02:30:25;19.50;52.40
18126;DHT22;53956;52.442;13.284;2023-06-05T02:32:52;19.50;52.10
18126;DHT22;53956;52.442;13.284;2023-06-05T02:35:23;19.40;51.70
18126;DHT22;53956;52.442;13.284;2023-06-05T02:37:50;19.40;52.10
18126;DHT22;53956;52.442;13.284;2023-06-05T02:40:17;19.30;52.50
18126;DHT22;53956;52.442;13.284;2023-06-05T02:42:44;19.30;52.10
18126;DHT22;53956;52.442;13.284;2023-06-05T02:45:11;19.30;52.60
18126;DHT22;53956;52.442;13.284;2023-06-05T02:47:39;19.30;52.20
18126;DHT22;53956;52.442;13.284;2023-06-05T02:50:07;19.20;52.50
18126;DHT22;53956;52.442;13.284;2023-06-05T02:52:38;19.20;52.10
18126;DHT22;53956;52.442;13.284;2023-06-05T02:55:12;19.00;52.60
18126;DHT22;53956;52.442;13.284;2023-06-05T02:57:40;19.10;52.80
18126;DHT22;53956;52.442;13.284;2023-06-05T03:00:11;19.00;52.80
18126;DHT22;53956;52.442;13.284;2023-06-05T03:02:43;19.10;52.80
18126;DHT22;53956;52.442;13.284;2023-06-05T03:05:14;19.10;52.90
18126;DHT22;53956;52.442;13.284;2023-06-05T03:07:41;19.10;52.80
18126;DHT22;53956;52.442;13.284;2023-06-05T03:10:08;19.10;52.10
18126;DHT22;53956;52.442;13.284;2023-06-05T03:12:35;19.00;52.60
18126;DHT22;53956;52.442;13.284;2023-06-05T03:15:02;19.00;52.70
18126;DHT22;53956;52.442;13.284;2023-06-05T03:17:31;19.00;53.20
18126;DHT22;53956;52.442;13.284;2023-06-05T03:19:59;19.10;52.30
18126;DHT22;53956;52.442;13.284;2023-06-05T03:22:26;19.00;52.60
18126;DHT22;53956;52.442;13.284;2023-06-05T03:24:52;19.00;52.70
18126;DHT22;53956;52.442;13.284;2023-06-05T03:27:19;19.10;52.70
18126;DHT22;53956;52.442;13.284;2023-06-05T03:29:46;19.10;53.60
18126;DHT22;53956;52.442;13.284;2023-06-05T03:32:13;19.10;53.10
18126;DHT22;53956;52.442;13.284;2023-06-05T03:34:42;19.10;53.40
18126;DHT22;53956;52.442;13.284;2023-06-05T03:37:15;18.90;53.20
18126;DHT22;53956;52.442;13.284;2023-06-05T03:39:45;18.90;53.10
18126;DHT22;53956;52.442;13.284;2023-06-05T03:42:11;19.00;53.80
18126;DHT22;53956;52.442;13.284;2023-06-05T03:44:38;19.00;52.80
18126;DHT22;53956;52.442;13.284;2023-06-05T03:47:05;18.90;53.50
18126;DHT22;53956;52.442;13.284;2023-06-05T03:49:34;19.00;53.80
18126;DHT22;53956;52.442;13.284;2023-06-05T03:52:01;19.10;53.30
18126;DHT22;53956;52.442;13.284;2023-06-05T03:54:30;19.10;53.70
18126;DHT22;53956;52.442;13.284;2023-06-05T03:56:58;18.80;53.70
18126;DHT22;53956;52.442;13.284;2023-06-05T03:59:27;19.00;53.70
18126;DHT22;53956;52.442;13.284;2023-06-05T04:01:59;19.10;53.60
18126;DHT22;53956;52.442;13.284;2023-06-05T04:04:26;19.20;53.70
18126;DHT22;53956;52.442;13.284;2023-06-05T04:06:54;19.00;54.50
18126;DHT22;53956;52.442;13.284;2023-06-05T04:09:22;19.00;54.10
18126;DHT22;53956;52.442;13.284;2023-06-05T04:11:50;19.10;54.00
18126;DHT22;53956;52.442;13.284;2023-06-05T04:14:17;19.10;54.30
18126;DHT22;53956;52.442;13.284;2023-06-05T04:16:44;19.00;53.90
18126;DHT22;53956;52.442;13.284;2023-06-05T04:19:16;19.10;54.70
18126;DHT22;53956;52.442;13.284;2023-06-05T04:21:45;19.00;54.50
18126;DHT22;53956;52.442;13.284;2023-06-05T04:24:12;19.00;54.40
18126;DHT22;53956;52.442;13.284;2023-06-05T04:26:40;18.80;54.50
18126;DHT22;53956;52.442;13.284;2023-06-05T04:29:09;18.70;55.00
18126;DHT22;53956;52.442;13.284;2023-06-05T04:31:40;18.60;55.70
18126;DHT22;53956;52.442;13.284;2023-06-05T04:34:07;18.70;55.30
18126;DHT22;53956;52.442;13.284;2023-06-05T04:36:35;18.90;55.30
18126;DHT22;53956;52.442;13.284;2023-06-05T04:39:02;18.90;54.60
18126;DHT22;53956;52.442;13.284;2023-06-05T04:41:30;19.10;54.50
18126;DHT22;53956;52.442;13.284;2023-06-05T04:43:58;19.00;54.70
18126;DHT22;53956;52.442;13.284;2023-06-05T04:46:26;19.20;54.40
18126;DHT22;53956;52.442;13.284;2023-06-05T04:48:54;19.40;54.50
18126;DHT22;53956;52.442;13.284;2023-06-05T04:51:23;20.10;53.20
18126;DHT22;53956;52.442;13.284;2023-06-05T04:53:51;21.10;51.20
18126;DHT22;53956;52.442;13.284;2023-06-05T04:56:21;21.60;48.80
18126;DHT22;53956;52.442;13.284;2023-06-05T04:58:48;22.20;47.80
18126;DHT22;53956;52.442;13.284;2023-06-05T05:01:18;22.40;46.80
18126;DHT22;53956;52.442;13.284;2023-06-05T05:03:46;22.90;46.00
18126;DHT22;53956;52.442;13.284;2023-06-05T05:06:15;23.30;45.50
18126;DHT22;53956;52.442;13.284;2023-06-05T05:08:42;23.60;45.00
18126;DHT22;53956;52.442;13.284;2023-06-05T05:11:11;23.80;43.80
18126;DHT22;53956;52.442;13.284;2023-06-05T05:13:38;24.00;43.50
18126;DHT22;53956;52.442;13.284;2023-06-05T05:16:05;23.90;43.30
18126;DHT22;53956;52.442;13.284;2023-06-05T05:18:33;24.10;43.20
18126;DHT22;53956;52.442;13.284;2023-06-05T05:21:01;24.40;43.10
18126;DHT22;53956;52.442;13.284;2023-06-05T05:23:28;24.80;42.50
18126;DHT22;53956;52.442;13.284;2023-06-05T05:25:55;24.70;42.70
18126;DHT22;53956;52.442;13.284;2023-06-05T05:28:22;24.90;42.30
18126;DHT22;53956;52.442;13.284;2023-06-05T05:30:48;25.10;41.30
18126;DHT22;53956;52.442;13.284;2023-06-05T05:33:15;25.30;41.30
18126;DHT22;53956;52.442;13.284;2023-06-05T05:35:43;25.60;40.40
18126;DHT22;53956;52.442;13.284;2023-06-05T05:38:12;25.50;40.70
18126;DHT22;53956;52.442;13.284;2023-06-05T05:40:39;25.70;40.50
18126;DHT22;53956;52.442;13.284;2023-06-05T05:43:06;26.00;40.50
18126;DHT22;53956;52.442;13.284;2023-06-05T05:45:32;26.30;40.40
18126;DHT22;53956;52.442;13.284;2023-06-05T05:47:59;26.80;39.60
18126;DHT22;53956;52.442;13.284;2023-06-05T05:50:26;27.10;38.70
18126;DHT22;53956;52.442;13.284;2023-06-05T05:52:52;27.10;38.70
18126;DHT22;53956;52.442;13.284;2023-06-05T05:55:20;27.40;38.00
18126;DHT22;53956;52.442;13.284;2023-06-05T05:57:47;27.80;37.70
18126;DHT22;53956;52.442;13.284;2023-06-05T06:00:14;28.00;37.90
18126;DHT22;53956;52.442;13.284;2023-06-05T06:02:41;27.80;36.40
18126;DHT22;53956;52.442;13.284;2023-06-05T06:05:09;27.70;37.30
18126;DHT22;53956;52.442;13.284;2023-06-05T06:07:37;28.00;36.90
18126;DHT22;53956;52.442;13.284;2023-06-05T06:10:07;28.00;37.00
18126;DHT22;53956;52.442;13.284;2023-06-05T06:12:36;28.50;37.70
18126;DHT22;53956;52.442;13.284;2023-06-05T06:15:03;28.60;36.50
18126;DHT22;53956;52.442;13.284;2023-06-05T06:17:30;28.50;36.50
18126;DHT22;53956;52.442;13.284;2023-06-05T06:19:57;28.80;35.90
18126;DHT22;53956;52.442;13.284;2023-06-05T06:22:23;28.90;36.40
18126;DHT22;53956;52.442;13.284;2023-06-05T06:24:52;29.30;36.50
18126;DHT22;53956;52.442;13.284;2023-06-05T06:27:19;29.70;35.80
18126;DHT22;53956;52.442;13.284;2023-06-05T06:29:49;29.10;36.10
18126;DHT22;53956;52.442;13.284;2023-06-05T06:32:17;29.20;35.80
18126;DHT22;53956;52.442;13.284;2023-06-05T06:34:47;29.60;35.80
18126;DHT22;53956;52.442;13.284;2023-06-05T06:37:14;29.40;34.90
18126;DHT22;53956;52.442;13.284;2023-06-05T06:39:41;29.10;36.90
18126;DHT22;53956;52.442;13.284;2023-06-05T06:42:08;29.50;36.30
18126;DHT22;53956;52.442;13.284;2023-06-05T06:44:40;28.60;36.40
18126;DHT22;53956;52.442;13.284;2023-06-05T06:47:08;28.30;37.10
18126;DHT22;53956;52.442;13.284;2023-06-05T06:49:35;28.80;37.50
18126;DHT22;53956;52.442;13.284;2023-06-05T06:52:02;28.30;36.10
18126;DHT22;53956;52.442;13.284;2023-06-05T06:54:29;28.00;36.20
18126;DHT22;53956;52.442;13.284;2023-06-05T06:56:56;27.90;36.80
18126;DHT22;53956;52.442;13.284;2023-06-05T06:59:23;28.70;37.00
18126;DHT22;53956;52.442;13.284;2023-06-05T07:02:10;28.50;35.80
18126;DHT22;53956;52.442;13.284;2023-06-05T07:04:37;28.40;36.60
18126;DHT22;53956;52.442;13.284;2023-06-05T07:07:04;29.10;36.80
18126;DHT22;53956;52.442;13.284;2023-06-05T07:09:30;28.70;35.20
18126;DHT22;53956;52.442;13.284;2023-06-05T07:11:57;28.70;36.20
18126;DHT22;53956;52.442;13.284;2023-06-05T07:14:30;29.00;37.00
18126;DHT22;53956;52.442;13.284;2023-06-05T07:16:57;29.10;35.70
18126;DHT22;53956;52.442;13.284;2023-06-05T07:19:27;29.30;35.40
18126;DHT22;53956;52.442;13.284;2023-06-05T07:21:54;29.40;34.10
18126;DHT22;53956;52.442;13.284;2023-06-05T07:24:21;29.20;34.20
18126;DHT22;53956;52.442;13.284;2023-06-05T07:26:50;29.50;33.60
18126;DHT22;53956;52.442;13.284;2023-06-05T07:29:17;29.50;35.40
18126;DHT22;53956;52.442;13.284;2023-06-05T07:31:44;28.90;34.90
18126;DHT22;53956;52.442;13.284;2023-06-05T07:34:11;29.30;34.70
18126;DHT22;53956;52.442;13.284;2023-06-05T07:36:39;28.10;34.60
18126;DHT22;53956;52.442;13.284;2023-06-05T07:39:06;27.50;34.40
18126;DHT22;53956;52.442;13.284;2023-06-05T07:41:33;26.70;35.60
18126;DHT22;53956;52.442;13.284;2023-06-05T07:43:59;26.90;35.30
18126;DHT22;53956;52.442;13.284;2023-06-05T07:46:26;26.80;35.70
18126;DHT22;53956;52.442;13.284;2023-06-05T07:48:53;27.20;34.80
18126;DHT22;53956;52.442;13.284;2023-06-05T07:51:19;27.50;34.60
18126;DHT22;53956;52.442;13.284;2023-06-05T07:53:47;27.30;35.10
18126;DHT22;53956;52.442;13.284;2023-06-05T07:56:14;27.60;35.90
18126;DHT22;53956;52.442;13.284;2023-06-05T07:58:42;28.10;36.50
18126;DHT22;53956;52.442;13.284;2023-06-05T08:01:09;28.30;36.20
18126;DHT22;53956;52.442;13.284;2023-06-05T08:03:37;28.40;36.40
18126;DHT22;53956;52.442;13.284;2023-06-05T08:06:04;28.50;36.20
18126;DHT22;53956;52.442;13.284;2023-06-05T08:08:31;27.30;35.10
18126;DHT22;53956;52.442;13.284;2023-06-05T08:10:59;27.50;35.80
18126;DHT22;53956;52.442;13.284;2023-06-05T08:13:25;27.70;36.30
18126;DHT22;53956;52.442;13.284;2023-06-05T08:15:52;26.80;35.20
18126;DHT22;53956;52.442;13.284;2023-06-05T08:18:19;26.60;35.20
18126;DHT22;53956;52.442;13.284;2023-06-05T08:20:46;27.10;34.80
18126;DHT22;53956;52.442;13.284;2023-06-05T08:23:13;26.80;34.90
18126;DHT22;53956;52.442;13.284;2023-06-05T08:25:42;26.40;34.80
18126;DHT22;53956;52.442;13.284;2023-06-05T08:28:10;26.80;36.10
18126;DHT22;53956;52.442;13.284;2023-06-05T08:30:37;27.40;34.90
18126;DHT22;53956;52.442;13.284;2023-06-05T08:33:03;27.00;34.10
18126;DHT22;53956;52.442;13.284;2023-06-05T08:35:30;26.60;35.10
18126;DHT22;53956;52.442;13.284;2023-06-05T08:37:57;26.50;35.70
18126;DHT22;53956;52.442;13.284;2023-06-05T08:40:26;27.10;35.90
18126;DHT22;53956;52.442;13.284;2023-06-05T08:42:54;26.90;34.80
18126;DHT22;53956;52.442;13.284;2023-06-05T08:45:22;26.20;34.80
18126;DHT22;53956;52.442;13.284;2023-06-05T08:47:50;25.90;35.60
18126;DHT22;53956;52.442;13.284;2023-06-05T08:50:17;26.30;35.80
18126;DHT22;53956;52.442;13.284;2023-06-05T08:52:44;26.60;34.30
18126;DHT22;53956;52.442;13.284;2023-06-05T08:55:14;26.90;35.20
18126;DHT22;53956;52.442;13.284;2023-06-05T08:57:42;26.60;34.50
18126;DHT22;53956;52.442;13.284;2023-06-05T09:00:09;26.70;33.60
18126;DHT22;53956;52.442;13.284;2023-06-05T09:02:40;27.30;34.80
18126;DHT22;53956;52.442;13.284;2023-06-05T09:05:09;27.60;34.30
18126;DHT22;53956;52.442;13.284;2023-06-05T09:07:36;27.70;34.90
18126;DHT22;53956;52.442;13.284;2023-06-05T09:10:03;27.60;33.40
18126;DHT22;53956;52.442;13.284;2023-06-05T09:12:30;27.10;32.70
18126;DHT22;53956;52.442;13.284;2023-06-05T09:14:57;26.90;34.60
18126;DHT22;53956;52.442;13.284;2023-06-05T09:17:23;27.10;34.50
18126;DHT22;53956;52.442;13.284;2023-06-05T09:19:51;26.90;32.30
18126;DHT22;53956;52.442;13.284;2023-06-05T09:22:32;26.20;32.90
18126;DHT22;53956;52.442;13.284;2023-06-05T09:24:59;26.50;32.30
18126;DHT22;53956;52.442;13.284;2023-06-05T09:27:26;26.20;32.70
18126;DHT22;53956;52.442;13.284;2023-06-05T09:30:02;25.80;33.50
18126;DHT22;53956;52.442;13.284;2023-06-05T09:32:29;25.90;33.90
18126;DHT22;53956;52.442;13.284;2023-06-05T09:34:58;26.10;33.60
18126;DHT22;53956;52.442;13.284;2023-06-05T09:37:32;26.00;34.20
18126;DHT22;53956;52.442;13.284;2023-06-05T09:39:59;26.30;34.00
18126;DHT22;53956;52.442;13.284;2023-06-05T09:42:31;26.60;32.90
18126;DHT22;53956;52.442;13.284;2023-06-05T09:44:59;26.50;34.20
18126;DHT22;53956;52.442;13.284;2023-06-05T09:47:26;26.60;33.40
18126;DHT22;53956;52.442;13.284;2023-06-05T09:49:53;26.40;33.10
18126;DHT22;53956;52.442;13.284;2023-06-05T09:52:21;26.60;34.00
18126;DHT22;53956;52.442;13.284;2023-06-05T09:54:48;26.70;33.80
18126;DHT22;53956;52.442;13.284;2023-06-05T09:57:15;26.80;33.60
18126;DHT22;53956;52.442;13.284;2023-06-05T09:59:46;27.20;34.90
18126;DHT22;53956;52.442;13.284;2023-06-05T10:02:14;26.80;33.20
18126;DHT22;53956;52.442;13.284;2023-06-05T10:04:45;26.40;33.50
18126;DHT22;53956;52.442;13.284;2023-06-05T10:07:13;26.20;34.20
18126;DHT22;53956;52.442;13.284;2023-06-05T10:09:41;26.30;35.90
18126;DHT22;53956;52.442;13.284;2023-06-05T10:12:09;26.60;35.40
18126;DHT22;53956;52.442;13.284;2023-06-05T10:14:40;26.80;35.10
18126;DHT22;53956;52.442;13.284;2023-06-05T10:17:07;27.00;34.80
18126;DHT22;53956;52.442;13.284;2023-06-05T10:19:34;27.10;34.10
18126;DHT22;53956;52.442;13.284;2023-06-05T10:22:01;26.90;34.20
18126;DHT22;53956;52.442;13.284;2023-06-05T10:24:31;26.90;35.30
18126;DHT22;53956;52.442;13.284;2023-06-05T10:27:28;26.60;33.90
18126;DHT22;53956;52.442;13.284;2023-06-05T10:33:21;26.90;33.60
18126;DHT22;53956;52.442;13.284;2023-06-05T10:35:55;27.10;34.50
18126;DHT22;53956;52.442;13.284;2023-06-05T10:38:27;27.10;33.80
18126;DHT22;53956;52.442;13.284;2023-06-05T10:40:55;27.30;34.60
18126;DHT22;53956;52.442;13.284;2023-06-05T10:43:30;27.20;33.10
18126;DHT22;53956;52.442;13.284;2023-06-05T10:45:59;27.20;33.60
18126;DHT22;53956;52.442;13.284;2023-06-05T10:51:35;26.60;33.30
18126;DHT22;53956;52.442;13.284;2023-06-05T10:54:03;26.90;32.90
18126;DHT22;53956;52.442;13.284;2023-06-05T10:56:54;27.00;33.10
18126;DHT22;53956;52.442;13.284;2023-06-05T10:59:23;26.90;33.30
18126;DHT22;53956;52.442;13.284;2023-06-05T11:02:25;26.90;33.80
18126;DHT22;53956;52.442;13.284;2023-06-05T11:05:08;27.00;33.60
18126;DHT22;53956;52.442;13.284;2023-06-05T11:07:39;27.10;33.90
18126;DHT22;53956;52.442;13.284;2023-06-05T11:10:14;27.10;32.90
18126;DHT22;53956;52.442;13.284;2023-06-05T11:12:57;27.10;33.40
18126;DHT22;53956;52.442;13.284;2023-06-05T11:15:52;27.00;32.70
18126;DHT22;53956;52.442;13.284;2023-06-05T11:18:29;26.40;32.50
18126;DHT22;53956;52.442;13.284;2023-06-05T11:20:57;26.40;33.50
18126;DHT22;53956;52.442;13.284;2023-06-05T11:23:24;26.50;33.20
18126;DHT22;53956;52.442;13.284;2023-06-05T11:25:54;26.20;32.30
18126;DHT22;53956;52.442;13.284;2023-06-05T11:28:42;26.10;33.00
18126;DHT22;53956;52.442;13.284;2023-06-05T11:31:11;26.40;33.50
18126;DHT22;53956;52.442;13.284;2023-06-05T11:33:38;26.50;33.10
18126;DHT22;53956;52.442;13.284;2023-06-05T11:36:06;26.50;32.90
18126;DHT22;53956;52.442;13.284;2023-06-05T11:38:34;26.50;32.90
18126;DHT22;53956;52.442;13.284;2023-06-05T11:41:06;26.30;33.50
18126;DHT22;53956;52.442;13.284;2023-06-05T11:43:41;26.40;33.30
18126;DHT22;53956;52.442;13.284;2023-06-05T11:46:10;26.40;33.10
18126;DHT22;53956;52.442;13.284;2023-06-05T11:48:43;26.50;33.60
18126;DHT22;53956;52.442;13.284;2023-06-05T11:51:10;26.60;34.10
18126;DHT22;53956;52.442;13.284;2023-06-05T11:53:44;26.70;34.20
18126;DHT22;53956;52.442;13.284;2023-06-05T11:56:15;26.90;33.90
18126;DHT22;53956;52.442;13.284;2023-06-05T11:58:43;27.00;33.70
18126;DHT22;53956;52.442;13.284;2023-06-05T12:01:13;26.80;32.30
18126;DHT22;53956;52.442;13.284;2023-06-05T12:03:43;26.60;33.00
18126;DHT22;53956;52.442;13.284;2023-06-05T12:06:10;26.60;33.70
18126;DHT22;53956;52.442;13.284;2023-06-05T12:08:38;26.80;34.50
18126;DHT22;53956;52.442;13.284;2023-06-05T12:11:19;26.80;33.30
18126;DHT22;53956;52.442;13.284;2023-06-05T12:13:48;26.90;32.70
18126;DHT22;53956;52.442;13.284;2023-06-05T12:16:18;26.70;33.40
18126;DHT22;53956;52.442;13.284;2023-06-05T12:18:45;26.70;32.40
18126;DHT22;53956;52.442;13.284;2023-06-05T12:21:21;26.50;32.30
18126;DHT22;53956;52.442;13.284;2023-06-05T12:23:49;26.70;33.40
18126;DHT22;53956;52.442;13.284;2023-06-05T12:26:16;26.60;32.60
18126;DHT22;53956;52.442;13.284;2023-06-05T12:28:44;26.60;32.80
18126;DHT22;53956;52.442;13.284;2023-06-05T12:31:35;26.60;32.60
18126;DHT22;53956;52.442;13.284;2023-06-05T12:34:03;26.60;31.70
18126;DHT22;53956;52.442;13.284;2023-06-05T12:36:30;26.70;33.10
18126;DHT22;53956;52.442;13.284;2023-06-05T12:39:02;26.70;32.10
18126;DHT22;53956;52.442;13.284;2023-06-05T12:41:31;26.70;32.70
18126;DHT22;53956;52.442;13.284;2023-06-05T12:44:01;26.70;32.00
18126;DHT22;53956;52.442;13.284;2023-06-05T12:46:29;26.60;32.00
18126;DHT22;53956;52.442;13.284;2023-06-05T12:48:58;26.50;31.80
18126;DHT22;53956;52.442;13.284;2023-06-05T12:51:25;26.40;31.70
18126;DHT22;53956;52.442;13.284;2023-06-05T12:53:52;26.30;32.70
18126;DHT22;53956;52.442;13.284;2023-06-05T12:56:19;26.40;32.00
18126;DHT22;53956;52.442;13.284;2023-06-05T12:58:51;26.50;31.80
18126;DHT22;53956;52.442;13.284;2023-06-05T13:01:18;26.60;32.30
18126;DHT22;53956;52.442;13.284;2023-06-05T13:03:45;26.50;31.60
18126;DHT22;53956;52.442;13.284;2023-06-05T13:06:13;26.60;33.00
18126;DHT22;53956;52.442;13.284;2023-06-05T13:08:40;26.50;31.10
18126;DHT22;53956;52.442;13.284;2023-06-05T13:11:07;26.50;31.50
18126;DHT22;53956;52.442;13.284;2023-06-05T13:13:35;26.60;32.30
18126;DHT22;53956;52.442;13.284;2023-06-05T13:16:01;26.50;31.40
18126;DHT22;53956;52.442;13.284;2023-06-05T13:18:30;26.50;31.30
18126;DHT22;53956;52.442;13.284;2023-06-05T13:20:57;26.60;32.40
18126;DHT22;53956;52.442;13.284;2023-06-05T13:23:25;26.40;30.80
18126;DHT22;53956;52.442;13.284;2023-06-05T13:25:52;26.40;31.50
18126;DHT22;53956;52.442;13.284;2023-06-05T13:28:19;26.40;32.40
18126;DHT22;53956;52.442;13.284;2023-06-05T13:30:46;26.60;32.10
18126;DHT22;53956;52.442;13.284;2023-06-05T13:33:13;26.60;31.80
18126;DHT22;53956;52.442;13.284;2023-06-05T13:35:40;26.50;31.80
18126;DHT22;53956;52.442;13.284;2023-06-05T13:38:07;26.50;31.80
18126;DHT22;53956;52.442;13.284;2023-06-05T13:40:35;26.40;31.20
18126;DHT22;53956;52.442;13.284;2023-06-05T13:43:02;26.40;32.00
18126;DHT22;53956;52.442;13.284;2023-06-05T13:45:28;26.50;31.60
18126;DHT22;53956;52.442;13.284;2023-06-05T13:47:55;26.60;32.50
18126;DHT22;53956;52.442;13.284;2023-06-05T13:50:22;26.70;32.60
18126;DHT22;53956;52.442;13.284;2023-06-05T13:52:48;26.70;32.60
18126;DHT22;53956;52.442;13.284;2023-06-05T13:55:15;26.70;32.50
18126;DHT22;53956;52.442;13.284;2023-06-05T13:57:43;26.70;31.30
18126;DHT22;53956;52.442;13.284;2023-06-05T14:00:11;26.70;31.30
18126;DHT22;53956;52.442;13.284;2023-06-05T14:02:39;26.70;31.00
18126;DHT22;53956;52.442;13.284;2023-06-05T14:05:07;26.70;31.60
18126;DHT22;53956;52.442;13.284;2023-06-05T14:07:36;26.70;30.90
18126;DHT22;53956;52.442;13.284;2023-06-05T14:10:03;26.90;31.80
18126;DHT22;53956;52.442;13.284;2023-06-05T14:12:30;26.90;32.00
18126;DHT22;53956;52.442;13.284;2023-06-05T14:14:58;27.00;31.60
18126;DHT22;53956;52.442;13.284;2023-06-05T14:17:25;26.90;32.00
18126;DHT22;53956;52.442;13.284;2023-06-05T14:19:52;26.90;32.20
18126;DHT22;53956;52.442;13.284;2023-06-05T14:22:19;26.80;31.50
18126;DHT22;53956;52.442;13.284;2023-06-05T14:24:46;26.80;31.00
18126;DHT22;53956;52.442;13.284;2023-06-05T14:27:13;26.80;32.00
18126;DHT22;53956;52.442;13.284;2023-06-05T14:29:41;26.90;31.90
18126;DHT22;53956;52.442;13.284;2023-06-05T14:32:09;27.00;32.10
18126;DHT22;53956;52.442;13.284;2023-06-05T14:34:35;27.10;32.80
18126;DHT22;53956;52.442;13.284;2023-06-05T14:37:02;27.00;31.30
18126;DHT22;53956;52.442;13.284;2023-06-05T14:39:29;26.80;30.90
18126;DHT22;53956;52.442;13.284;2023-06-05T14:41:56;26.80;31.90
18126;DHT22;53956;52.442;13.284;2023-06-05T14:44:22;26.90;31.80
18126;DHT22;53956;52.442;13.284;2023-06-05T14:46:49;27.00;32.20
18126;DHT22;53956;52.442;13.284;2023-06-05T14:49:17;27.00;31.90
18126;DHT22;53956;52.442;13.284;2023-06-05T14:51:44;26.90;31.70
18126;DHT22;53956;52.442;13.284;2023-06-05T14:54:12;26.80;31.70
18126;DHT22;53956;52.442;13.284;2023-06-05T14:56:39;26.80;38.90
18126;DHT22;53956;52.442;13.284;2023-06-05T14:59:06;26.80;32.70
18126;DHT22;53956;52.442;13.284;2023-06-05T15:01:33;26.50;32.20
18126;DHT22;53956;52.442;13.284;2023-06-05T15:03:59;26.50;32.90
18126;DHT22;53956;52.442;13.284;2023-06-05T15:06:27;26.50;34.60
18126;DHT22;53956;52.442;13.284;2023-06-05T15:08:54;26.40;32.70
18126;DHT22;53956;52.442;13.284;2023-06-05T15:11:21;26.40;37.50
18126;DHT22;53956;52.442;13.284;2023-06-05T15:13:47;26.40;34.60
18126;DHT22;53956;52.442;13.284;2023-06-05T15:16:14;26.50;37.30
18126;DHT22;53956;52.442;13.284;2023-06-05T15:18:41;26.50;33.70
18126;DHT22;53956;52.442;13.284;2023-06-05T15:21:07;26.50;33.10
18126;DHT22;53956;52.442;13.284;2023-06-05T15:23:35;26.50;34.20
18126;DHT22;53956;52.442;13.284;2023-06-05T15:26:02;26.30;34.60
18126;DHT22;53956;52.442;13.284;2023-06-05T15:28:29;26.40;34.60
18126;DHT22;53956;52.442;13.284;2023-06-05T15:30:55;26.50;33.70